sensor_id;sensor_type;location;lat;lon;timestamp;pressure;altitude;pressure_sealevel;temperature;humidity
23574;BME280;11965;53.640;10.050;2023-02-28T00:00:21;103043.78;;;2.07;92.85
23574;BME280;11965;53.640;10.050;2023-02-28T00:02:48;103037.56;;;2.04;94.25
23574;BME280;11965;53.640;10.050;2023-02-28T00:05:18;103032.38;;;1.99;94.54
23574;BME280;11965;53.640;10.050;2023-02-28T00:07:46;103037.28;;;1.92;93.93
23574;BME280;11965;53.640;10.050;2023-02-28T00:10:15;103035.25;;;1.80;94.92
23574;BME280;11965;53.640;10.050;2023-02-28T00:12:44;103038.22;;;1.75;93.98
23574;BME280;11965;53.640;10.050;2023-02-28T00:15:13;103032.94;;;1.72;95.13
23574;BME280;11965;53.640;10.050;2023-02-28T00:17:39;103042.41;;;1.65;95.79
23574;BME280;11965;53.640;10.050;2023-02-28T00:20:08;103045.25;;;1.46;95.33
23574;BME280;11965;53.640;10.050;2023-02-28T00:22:37;103045.00;;;1.33;96.89
23574;BME280;11965;53.640;10.050;2023-02-28T00:25:05;103052.88;;;1.22;97.90
23574;BME280;11965;53.640;10.050;2023-02-28T00:27:33;103050.56;;;1.15;99.70
23574;BME280;11965;53.640;10.050;2023-02-28T00:30:00;103051.69;;;1.10;100.00
23574;BME280;11965;53.640;10.050;2023-02-28T00:32:28;103048.84;;;1.12;100.00
23574;BME280;11965;53.640;10.050;2023-02-28T00:34:55;103044.16;;;1.16;100.00
23574;BME280;11965;53.640;10.050;2023-02-28T00:37:22;103046.53;;;1.22;100.00
23574;BME280;11965;53.640;10.050;2023-02-28T00:39:49;103047.44;;;1.22;100.00
23574;BME280;11965;53.640;10.050;2023-02-28T00:42:16;103050.16;;;1.22;100.00
23574;BME280;11965;53.640;10.050;2023-02-28T00:44:43;103043.06;;;1.18;100.00
23574;BME280;11965;53.640;10.050;2023-02-28T00:47:10;103050.66;;;1.13;100.00
23574;BME280;11965;53.640;10.050;2023-02-28T00:49:39;103050.78;;;1.10;100.00
23574;BME280;11965;53.640;10.050;2023-02-28T00:52:06;103058.19;;;1.08;100.00
23574;BME280;11965;53.640;10.050;2023-02-28T00:54:33;103058.03;;;1.11;100.00
23574;BME280;11965;53.640;10.050;2023-02-28T00:56:59;103051.59;;;1.12;100.00
23574;BME280;11965;53.640;10.050;2023-02-28T00:59:27;103045.25;;;1.12;100.00
23574;BME280;11965;53.640;10.050;2023-02-28T01:01:53;103061.41;;;1.16;100.00
23574;BME280;11965;53.640;10.050;2023-02-28T01:04:21;103057.69;;;1.17;100.00
23574;BME280;11965;53.640;10.050;2023-02-28T01:06:49;103064.84;;;1.20;100.00
23574;BME280;11965;53.640;10.050;2023-02-28T01:09:16;103057.63;;;1.19;100.00
23574;BME280;11965;53.640;10.050;2023-02-28T01:11:43;103061.25;;;1.19;100.00
23574;BME280;11965;53.640;10.050;2023-02-28T01:14:12;103058.13;;;1.27;100.00
23574;BME280;11965;53.640;10.050;2023-02-28T01:16:39;103052.41;;;1.31;98.93
23574;BME280;11965;53.640;10.050;2023-02-28T01:19:07;103057.09;;;1.29;97.97
23574;BME280;11965;53.640;10.050;2023-02-28T01:21:34;103055.88;;;1.35;98.28
23574;BME280;11965;53.640;10.050;2023-02-28T01:24:03;103065.75;;;1.38;97.72
23574;BME280;11965;53.640;10.050;2023-02-28T01:26:31;103057.16;;;1.28;99.90
23574;BME280;11965;53.640;10.050;2023-02-28T01:28:58;103061.56;;;1.13;100.00
23574;BME280;11965;53.640;10.050;2023-02-28T01:31:25;103060.16;;;1.04;100.00
23574;BME280;11965;53.640;10.050;2023-02-28T01:33:52;103063.63;;;0.91;100.00
23574;BME280;11965;53.640;10.050;2023-02-28T01:36:21;103064.47;;;0.74;100.00
23574;BME280;11965;53.640;10.050;2023-02-28T01:38:49;103074.94;;;0.64;100.00
23574;BME280;11965;53.640;10.050;2023-02-28T01:41:20;103069.31;;;0.67;100.00
23574;BME280;11965;53.640;10.050;2023-02-28T01:44:06;103061.13;;;0.67;100.00
23574;BME280;11965;53.640;10.050;2023-02-28T01:46:35;103054.81;;;0.66;100.00
23574;BME280;11965;53.640;10.050;2023-02-28T01:49:06;103059.16;;;0.71;100.00
23574;BME280;11965;53.640;10.050;2023-02-28T01:51:41;103051.84;;;0.71;100.00
23574;BME280;11965;53.640;10.050;2023-02-28T01:54:15;103056.34;;;0.72;100.00
23574;BME280;11965;53.640;10.050;2023-02-28T01:56:49;103049.94;;;0.73;100.00
23574;BME280;11965;53.640;10.050;2023-02-28T01:59:24;103063.44;;;0.76;100.00
23574;BME280;11965;53.640;10.050;2023-02-28T02:01:54;103055.97;;;0.80;100.00
23574;BME280;11965;53.640;10.050;2023-02-28T02:04:26;103053.97;;;0.83;100.00
23574;BME280;11965;53.640;10.050;2023-02-28T02:06:55;103046.50;;;0.87;100.00
23574;BME280;11965;53.640;10.050;2023-02-28T02:09:22;103052.63;;;0.92;100.00
23574;BME280;11965;53.640;10.050;2023-02-28T02:11:50;103046.34;;;0.90;100.00
23574;BME280;11965;53.640;10.050;2023-02-28T02:14:37;103045.78;;;0.83;100.00
23574;BME280;11965;53.640;10.050;2023-02-28T02:17:18;103044.66;;;0.87;100.00
23574;BME280;11965;53.640;10.050;2023-02-28T02:20:26;103061.47;;;0.97;100.00
23574;BME280;11965;53.640;10.050;2023-02-28T02:23:24;103057.59;;;1.01;100.00
23574;BME280;11965;53.640;10.050;2023-02-28T02:26:02;103050.22;;;1.03;100.00
23574;BME280;11965;53.640;10.050;2023-02-28T02:28:54;103041.16;;;1.03;100.00
23574;BME280;11965;53.640;10.050;2023-02-28T02:31:43;103040.34;;;1.01;100.00
23574;BME280;11965;53.640;10.050;2023-02-28T02:34:42;103038.50;;;1.01;100.00
23574;BME280;11965;53.640;10.050;2023-02-28T02:37:24;103035.59;;;1.04;100.00
23574;BME280;11965;53.640;10.050;2023-02-28T02:40:07;103037.38;;;1.05;100.00
23574;BME280;11965;53.640;10.050;2023-02-28T02:42:45;103033.69;;;1.06;100.00
23574;BME280;11965;53.640;10.050;2023-02-28T02:45:20;103031.34;;;0.99;100.00
23574;BME280;11965;53.640;10.050;2023-02-28T02:47:49;103037.59;;;0.83;100.00
23574;BME280;11965;53.640;10.050;2023-02-28T02:50:23;103039.91;;;0.74;100.00
23574;BME280;11965;53.640;10.050;2023-02-28T02:52:56;103036.56;;;0.67;100.00
23574;BME280;11965;53.640;10.050;2023-02-28T02:55:25;103038.22;;;0.71;100.00
23574;BME280;11965;53.640;10.050;2023-02-28T02:57:57;103034.50;;;0.72;100.00
23574;BME280;11965;53.640;10.050;2023-02-28T03:00:32;103034.97;;;0.63;100.00
23574;BME280;11965;53.640;10.050;2023-02-28T03:03:02;103036.00;;;0.60;100.00
23574;BME280;11965;53.640;10.050;2023-02-28T03:05:35;103027.22;;;0.54;100.00
23574;BME280;11965;53.640;10.050;2023-02-28T03:08:08;103034.91;;;0.46;100.00
23574;BME280;11965;53.640;10.050;2023-02-28T03:10:38;103030.88;;;0.35;100.00
23574;BME280;11965;53.640;10.050;2023-02-28T03:13:32;103038.63;;;0.26;100.00
23574;BME280;11965;53.640;10.050;2023-02-28T03:16:22;103044.66;;;0.13;100.00
23574;BME280;11965;53.640;10.050;2023-02-28T03:19:06;103045.91;;;0.06;100.00
23574;BME280;11965;53.640;10.050;2023-02-28T03:21:45;103051.66;;;0.00;100.00
23574;BME280;11965;53.640;10.050;2023-02-28T03:24:19;103048.53;;;-0.11;100.00
23574;BME280;11965;53.640;10.050;2023-02-28T03:26:56;103057.06;;;-0.19;100.00
23574;BME280;11965;53.640;10.050;2023-02-28T03:29:32;103066.91;;;-0.35;100.00
23574;BME280;11965;53.640;10.050;2023-02-28T03:32:06;103056.44;;;-0.45;100.00
23574;BME280;11965;53.640;10.050;2023-02-28T03:34:46;103059.56;;;-0.54;100.00
23574;BME280;11965;53.640;10.050;2023-02-28T03:37:22;103062.63;;;-0.61;100.00
23574;BME280;11965;53.640;10.050;2023-02-28T03:39:56;103058.25;;;-0.65;100.00
23574;BME280;11965;53.640;10.050;2023-02-28T03:42:28;103064.13;;;-0.75;100.00
23574;BME280;11965;53.640;10.050;2023-02-28T03:44:59;103069.03;;;-0.83;100.00
23574;BME280;11965;53.640;10.050;2023-02-28T03:47:32;103058.31;;;-0.87;100.00
23574;BME280;11965;53.640;10.050;2023-02-28T03:50:05;103063.03;;;-0.91;100.00
23574;BME280;11965;53.640;10.050;2023-02-28T03:52:40;103064.28;;;-1.00;100.00
23574;BME280;11965;53.640;10.050;2023-02-28T03:55:12;103063.53;;;-1.03;100.00
23574;BME280;11965;53.640;10.050;2023-02-28T03:57:51;103064.69;;;-1.09;100.00
23574;BME280;11965;53.640;10.050;2023-02-28T04:00:28;103064.25;;;-1.20;100.00
23574;BME280;11965;53.640;10.050;2023-02-28T04:02:57;103059.03;;;-1.26;100.00
23574;BME280;11965;53.640;10.050;2023-02-28T04:05:24;103071.00;;;-1.30;100.00
23574;BME280;11965;53.640;10.050;2023-02-28T04:07:52;103060.25;;;-1.34;100.00
23574;BME280;11965;53.640;10.050;2023-02-28T04:10:19;103068.59;;;-1.38;100.00
23574;BME280;11965;53.640;10.050;2023-02-28T04:12:46;103063.28;;;-1.41;100.00
23574;BME280;11965;53.640;10.050;2023-02-28T04:15:13;103062.41;;;-1.42;100.00
23574;BME280;11965;53.640;10.050;2023-02-28T04:17:40;103069.88;;;-1.47;100.00
23574;BME280;11965;53.640;10.050;2023-02-28T04:20:08;103067.28;;;-1.50;100.00
23574;BME280;11965;53.640;10.050;2023-02-28T04:22:36;103062.59;;;-1.46;100.00
23574;BME280;11965;53.640;10.050;2023-02-28T04:25:06;103061.00;;;-1.52;100.00
23574;BME280;11965;53.640;10.050;2023-02-28T04:27:33;103066.56;;;-1.55;100.00
23574;BME280;11965;53.640;10.050;2023-02-28T04:30:00;103071.19;;;-1.57;100.00
23574;BME280;11965;53.640;10.050;2023-02-28T04:32:27;103067.63;;;-1.59;100.00
23574;BME280;11965;53.640;10.050;2023-02-28T04:34:53;103077.63;;;-1.60;100.00
23574;BME280;11965;53.640;10.050;2023-02-28T04:37:20;103062.41;;;-1.64;100.00
23574;BME280;11965;53.640;10.050;2023-02-28T04:39:53;103075.28;;;-1.69;100.00
23574;BME280;11965;53.640;10.050;2023-02-28T04:42:21;103057.56;;;-1.79;100.00
23574;BME280;11965;53.640;10.050;2023-02-28T04:44:48;103072.56;;;-1.69;100.00
23574;BME280;11965;53.640;10.050;2023-02-28T04:47:15;103077.34;;;-1.75;100.00
23574;BME280;11965;53.640;10.050;2023-02-28T04:49:42;103082.06;;;-1.81;100.00
23574;BME280;11965;53.640;10.050;2023-02-28T04:52:08;103076.88;;;-1.87;100.00
23574;BME280;11965;53.640;10.050;2023-02-28T04:54:36;103082.28;;;-1.85;100.00
23574;BME280;11965;53.640;10.050;2023-02-28T04:57:04;103081.56;;;-1.90;100.00
23574;BME280;11965;53.640;10.050;2023-02-28T04:59:32;103080.59;;;-1.89;100.00
23574;BME280;11965;53.640;10.050;2023-02-28T05:01:59;103079.84;;;-1.93;100.00
23574;BME280;11965;53.640;10.050;2023-02-28T05:04:32;103091.75;;;-1.97;100.00
23574;BME280;11965;53.640;10.050;2023-02-28T05:07:00;103079.28;;;-2.03;100.00
23574;BME280;11965;53.640;10.050;2023-02-28T05:09:27;103080.38;;;-2.07;100.00
23574;BME280;11965;53.640;10.050;2023-02-28T05:11:54;103087.44;;;-2.03;100.00
23574;BME280;11965;53.640;10.050;2023-02-28T05:14:22;103081.31;;;-2.08;100.00
23574;BME280;11965;53.640;10.050;2023-02-28T05:16:50;103075.88;;;-2.08;100.00
23574;BME280;11965;53.640;10.050;2023-02-28T05:19:17;103086.72;;;-2.08;100.00
23574;BME280;11965;53.640;10.050;2023-02-28T05:21:50;103077.59;;;-2.05;100.00
23574;BME280;11965;53.640;10.050;2023-02-28T05:24:18;103076.69;;;-2.06;100.00
23574;BME280;11965;53.640;10.050;2023-02-28T05:26:49;103081.38;;;-2.09;100.00
23574;BME280;11965;53.640;10.050;2023-02-28T05:29:17;103079.81;;;-2.16;100.00
23574;BME280;11965;53.640;10.050;2023-02-28T05:31:44;103091.69;;;-2.19;100.00
23574;BME280;11965;53.640;10.050;2023-02-28T05:34:13;103098.00;;;-2.18;100.00
23574;BME280;11965;53.640;10.050;2023-02-28T05:36:41;103098.16;;;-2.23;100.00
23574;BME280;11965;53.640;10.050;2023-02-28T05:39:08;103090.00;;;-2.23;100.00
23574;BME280;11965;53.640;10.050;2023-02-28T05:41:39;103094.69;;;-2.27;100.00
23574;BME280;11965;53.640;10.050;2023-02-28T05:44:06;103099.41;;;-2.32;100.00
23574;BME280;11965;53.640;10.050;2023-02-28T05:46:33;103095.63;;;-2.28;100.00
23574;BME280;11965;53.640;10.050;2023-02-28T05:49:01;103098.34;;;-2.28;100.00
23574;BME280;11965;53.640;10.050;2023-02-28T05:51:29;103092.25;;;-2.34;100.00
23574;BME280;11965;53.640;10.050;2023-02-28T05:53:59;103097.75;;;-2.36;100.00
23574;BME280;11965;53.640;10.050;2023-02-28T05:56:26;103099.66;;;-2.39;100.00
23574;BME280;11965;53.640;10.050;2023-02-28T05:58:53;103106.22;;;-2.45;100.00
23574;BME280;11965;53.640;10.050;2023-02-28T06:01:23;103106.31;;;-2.48;100.00
23574;BME280;11965;53.640;10.050;2023-02-28T06:03:51;103115.09;;;-2.40;100.00
23574;BME280;11965;53.640;10.050;2023-02-28T06:06:18;103100.66;;;-2.42;100.00
23574;BME280;11965;53.640;10.050;2023-02-28T06:08:46;103104.44;;;-2.46;100.00
23574;BME280;11965;53.640;10.050;2023-02-28T06:11:13;103112.72;;;-2.49;100.00
23574;BME280;11965;53.640;10.050;2023-02-28T06:13:40;103107.16;;;-2.46;100.00
23574;BME280;11965;53.640;10.050;2023-02-28T06:16:08;103109.81;;;-2.45;100.00
23574;BME280;11965;53.640;10.050;2023-02-28T06:18:35;103102.69;;;-2.47;100.00
23574;BME280;11965;53.640;10.050;2023-02-28T06:21:03;103106.22;;;-2.45;100.00
23574;BME280;11965;53.640;10.050;2023-02-28T06:23:30;103116.47;;;-2.53;100.00
23574;BME280;11965;53.640;10.050;2023-02-28T06:25:58;103113.59;;;-2.49;100.00
23574;BME280;11965;53.640;10.050;2023-02-28T06:28:25;103111.72;;;-2.47;100.00
23574;BME280;11965;53.640;10.050;2023-02-28T06:30:52;103117.31;;;-2.51;100.00
23574;BME280;11965;53.640;10.050;2023-02-28T06:33:20;103118.16;;;-2.49;100.00
23574;BME280;11965;53.640;10.050;2023-02-28T06:35:47;103118.25;;;-2.52;100.00
23574;BME280;11965;53.640;10.050;2023-02-28T06:38:14;103130.03;;;-2.53;100.00
23574;BME280;11965;53.640;10.050;2023-02-28T06:40:41;103127.28;;;-2.52;100.00
23574;BME280;11965;53.640;10.050;2023-02-28T06:43:10;103126.22;;;-2.48;100.00
23574;BME280;11965;53.640;10.050;2023-02-28T06:45:42;103124.41;;;-2.47;100.00
23574;BME280;11965;53.640;10.050;2023-02-28T06:48:09;103126.03;;;-2.41;100.00
23574;BME280;11965;53.640;10.050;2023-02-28T06:50:36;103132.44;;;-2.44;100.00
23574;BME280;11965;53.640;10.050;2023-02-28T06:53:03;103130.63;;;-2.43;100.00
23574;BME280;11965;53.640;10.050;2023-02-28T06:55:30;103125.94;;;-2.40;100.00
23574;BME280;11965;53.640;10.050;2023-02-28T06:57:57;103124.19;;;-2.41;100.00
23574;BME280;11965;53.640;10.050;2023-02-28T07:00:26;103127.66;;;-2.37;100.00
23574;BME280;11965;53.640;10.050;2023-02-28T07:02:53;103130.38;;;-2.37;100.00
23574;BME280;11965;53.640;10.050;2023-02-28T07:05:21;103124.84;;;-2.34;100.00
23574;BME280;11965;53.640;10.050;2023-02-28T07:07:48;103122.00;;;-2.31;100.00
23574;BME280;11965;53.640;10.050;2023-02-28T07:10:15;103119.22;;;-2.28;100.00
23574;BME280;11965;53.640;10.050;2023-02-28T07:12:42;103128.97;;;-2.23;100.00
23574;BME280;11965;53.640;10.050;2023-02-28T07:15:10;103135.19;;;-2.20;100.00
23574;BME280;11965;53.640;10.050;2023-02-28T07:17:38;103137.75;;;-2.16;100.00
23574;BME280;11965;53.640;10.050;2023-02-28T07:20:06;103141.09;;;-2.08;100.00
23574;BME280;11965;53.640;10.050;2023-02-28T07:22:33;103136.31;;;-2.01;100.00
23574;BME280;11965;53.640;10.050;2023-02-28T07:25:01;103140.75;;;-1.98;100.00
23574;BME280;11965;53.640;10.050;2023-02-28T07:27:28;103140.44;;;-1.91;100.00
23574;BME280;11965;53.640;10.050;2023-02-28T07:29:54;103140.16;;;-1.83;100.00
23574;BME280;11965;53.640;10.050;2023-02-28T07:32:21;103143.69;;;-1.80;100.00
23574;BME280;11965;53.640;10.050;2023-02-28T07:34:50;103139.00;;;-1.76;100.00
23574;BME280;11965;53.640;10.050;2023-02-28T07:37:16;103139.63;;;-1.69;100.00
23574;BME280;11965;53.640;10.050;2023-02-28T07:39:43;103135.75;;;-1.62;100.00
23574;BME280;11965;53.640;10.050;2023-02-28T07:42:10;103133.59;;;-1.54;100.00
23574;BME280;11965;53.640;10.050;2023-02-28T07:44:38;103136.91;;;-1.46;100.00
23574;BME280;11965;53.640;10.050;2023-02-28T07:47:07;103144.78;;;-1.38;100.00
23574;BME280;11965;53.640;10.050;2023-02-28T07:49:34;103147.16;;;-1.29;100.00
23574;BME280;11965;53.640;10.050;2023-02-28T07:52:03;103134.22;;;-1.24;100.00
23574;BME280;11965;53.640;10.050;2023-02-28T07:54:30;103132.06;;;-1.16;100.00
23574;BME280;11965;53.640;10.050;2023-02-28T07:56:58;103144.47;;;-1.08;100.00
23574;BME280;11965;53.640;10.050;2023-02-28T07:59:25;103145.06;;;-1.00;100.00
23574;BME280;11965;53.640;10.050;2023-02-28T08:01:51;103158.19;;;-0.88;100.00
23574;BME280;11965;53.640;10.050;2023-02-28T08:04:18;103155.06;;;-0.79;100.00
23574;BME280;11965;53.640;10.050;2023-02-28T08:06:46;103144.41;;;-0.63;100.00
23574;BME280;11965;53.640;10.050;2023-02-28T08:09:14;103142.22;;;-0.55;100.00
23574;BME280;11965;53.640;10.050;2023-02-28T08:11:41;103143.66;;;-0.46;100.00
23574;BME280;11965;53.640;10.050;2023-02-28T08:14:08;103145.03;;;-0.36;100.00
23574;BME280;11965;53.640;10.050;2023-02-28T08:16:35;103145.44;;;-0.25;100.00
23574;BME280;11965;53.640;10.050;2023-02-28T08:19:02;103148.59;;;-0.13;100.00
23574;BME280;11965;53.640;10.050;2023-02-28T08:21:29;103147.88;;;0.02;100.00
23574;BME280;11965;53.640;10.050;2023-02-28T08:23:56;103148.03;;;0.19;100.00
23574;BME280;11965;53.640;10.050;2023-02-28T08:26:24;103148.09;;;0.37;100.00
23574;BME280;11965;53.640;10.050;2023-02-28T08:28:51;103144.34;;;0.39;100.00
23574;BME280;11965;53.640;10.050;2023-02-28T08:31:18;103146.88;;;0.44;100.00
23574;BME280;11965;53.640;10.050;2023-02-28T08:33:45;103145.34;;;0.57;100.00
23574;BME280;11965;53.640;10.050;2023-02-28T08:36:14;103145.47;;;0.73;100.00
23574;BME280;11965;53.640;10.050;2023-02-28T08:38:41;103145.84;;;0.84;100.00
23574;BME280;11965;53.640;10.050;2023-02-28T08:41:10;103141.69;;;0.95;99.17
23574;BME280;11965;53.640;10.050;2023-02-28T08:43:40;103145.66;;;1.06;97.85
23574;BME280;11965;53.640;10.050;2023-02-28T08:46:08;103150.75;;;1.14;96.42
23574;BME280;11965;53.640;10.050;2023-02-28T08:48:37;103148.34;;;1.25;95.07
23574;BME280;11965;53.640;10.050;2023-02-28T08:51:06;103151.41;;;1.37;93.86
23574;BME280;11965;53.640;10.050;2023-02-28T08:53:34;103142.81;;;1.44;91.44
23574;BME280;11965;53.640;10.050;2023-02-28T08:56:03;103141.47;;;1.53;89.04
23574;BME280;11965;53.640;10.050;2023-02-28T08:58:30;103146.47;;;1.62;88.12
23574;BME280;11965;53.640;10.050;2023-02-28T09:00:58;103148.06;;;1.84;83.91
23574;BME280;11965;53.640;10.050;2023-02-28T09:03:25;103150.88;;;1.99;82.89
23574;BME280;11965;53.640;10.050;2023-02-28T09:05:55;103155.66;;;2.12;82.14
23574;BME280;11965;53.640;10.050;2023-02-28T09:08:22;103152.44;;;2.21;81.76
23574;BME280;11965;53.640;10.050;2023-02-28T09:10:49;103154.81;;;2.45;78.37
23574;BME280;11965;53.640;10.050;2023-02-28T09:13:16;103152.22;;;2.41;79.80
23574;BME280;11965;53.640;10.050;2023-02-28T09:15:43;103159.66;;;2.39;78.36
23574;BME280;11965;53.640;10.050;2023-02-28T09:18:12;103154.22;;;2.55;73.24
23574;BME280;11965;53.640;10.050;2023-02-28T09:20:40;103154.19;;;2.71;71.84
23574;BME280;11965;53.640;10.050;2023-02-28T09:23:08;103150.16;;;2.78;72.91
23574;BME280;11965;53.640;10.050;2023-02-28T09:25:36;103140.81;;;2.82;70.47
23574;BME280;11965;53.640;10.050;2023-02-28T09:28:04;103153.72;;;2.96;71.95
23574;BME280;11965;53.640;10.050;2023-02-28T09:30:31;103149.47;;;3.06;70.47
23574;BME280;11965;53.640;10.050;2023-02-28T09:32:58;103155.81;;;3.07;71.94
23574;BME280;11965;53.640;10.050;2023-02-28T09:35:26;103148.72;;;3.19;68.29
23574;BME280;11965;53.640;10.050;2023-02-28T09:37:53;103151.28;;;3.22;69.53
23574;BME280;11965;53.640;10.050;2023-02-28T09:40:22;103164.28;;;3.34;67.86
23574;BME280;11965;53.640;10.050;2023-02-28T09:42:53;103159.84;;;3.47;65.68
23574;BME280;11965;53.640;10.050;2023-02-28T09:45:26;103151.81;;;3.44;67.01
23574;BME280;11965;53.640;10.050;2023-02-28T09:47:59;103155.56;;;3.58;69.49
23574;BME280;11965;53.640;10.050;2023-02-28T09:50:36;103168.22;;;3.60;66.53
23574;BME280;11965;53.640;10.050;2023-02-28T09:53:14;103163.22;;;3.67;68.32
23574;BME280;11965;53.640;10.050;2023-02-28T09:55:51;103168.28;;;3.89;67.73
23574;BME280;11965;53.640;10.050;2023-02-28T09:58:27;103161.72;;;3.91;66.83
23574;BME280;11965;53.640;10.050;2023-02-28T10:01:02;103163.78;;;3.88;66.42
23574;BME280;11965;53.640;10.050;2023-02-28T10:03:38;103163.97;;;3.85;68.27
23574;BME280;11965;53.640;10.050;2023-02-28T10:06:13;103164.06;;;3.83;66.85
23574;BME280;11965;53.640;10.050;2023-02-28T10:08:50;103164.59;;;3.90;68.77
23574;BME280;11965;53.640;10.050;2023-02-28T10:11:20;103161.59;;;4.09;63.19
23574;BME280;11965;53.640;10.050;2023-02-28T10:13:56;103164.34;;;4.09;65.99
23574;BME280;11965;53.640;10.050;2023-02-28T10:16:33;103161.28;;;4.13;65.19
23574;BME280;11965;53.640;10.050;2023-02-28T10:19:05;103170.91;;;4.20;66.93
23574;BME280;11965;53.640;10.050;2023-02-28T10:21:42;103156.50;;;4.17;64.76
23574;BME280;11965;53.640;10.050;2023-02-28T10:24:20;103159.59;;;4.11;64.24
23574;BME280;11965;53.640;10.050;2023-02-28T10:26:53;103156.78;;;4.12;62.52
23574;BME280;11965;53.640;10.050;2023-02-28T10:29:23;103159.53;;;4.27;62.16
23574;BME280;11965;53.640;10.050;2023-02-28T10:31:50;103150.22;;;4.29;61.59
23574;BME280;11965;53.640;10.050;2023-02-28T10:34:17;103150.81;;;4.34;61.97
23574;BME280;11965;53.640;10.050;2023-02-28T10:36:49;103149.47;;;4.27;59.13
23574;BME280;11965;53.640;10.050;2023-02-28T10:39:35;103164.47;;;4.36;60.88
23574;BME280;11965;53.640;10.050;2023-02-28T10:42:03;103162.97;;;4.45;60.42
23574;BME280;11965;53.640;10.050;2023-02-28T10:44:30;103149.72;;;4.37;61.10
23574;BME280;11965;53.640;10.050;2023-02-28T10:46:57;103144.53;;;4.32;63.79
23574;BME280;11965;53.640;10.050;2023-02-28T10:49:27;103150.41;;;4.26;60.60
23574;BME280;11965;53.640;10.050;2023-02-28T10:51:59;103155.13;;;4.24;60.69
23574;BME280;11965;53.640;10.050;2023-02-28T10:54:30;103151.69;;;4.20;60.52
23574;BME280;11965;53.640;10.050;2023-02-28T10:57:11;103156.03;;;4.39;59.35
23574;BME280;11965;53.640;10.050;2023-02-28T10:59:41;103157.59;;;4.57;59.31
23574;BME280;11965;53.640;10.050;2023-02-28T11:02:33;103162.78;;;4.76;55.81
23574;BME280;11965;53.640;10.050;2023-02-28T11:05:01;103151.97;;;4.87;55.00
23574;BME280;11965;53.640;10.050;2023-02-28T11:07:29;103143.78;;;5.00;54.67
23574;BME280;11965;53.640;10.050;2023-02-28T11:09:57;103151.47;;;4.95;55.90
23574;BME280;11965;53.640;10.050;2023-02-28T11:12:28;103155.56;;;4.88;57.16
23574;BME280;11965;53.640;10.050;2023-02-28T11:14:59;103154.41;;;4.92;55.27
23574;BME280;11965;53.640;10.050;2023-02-28T11:17:30;103144.63;;;5.15;53.13
23574;BME280;11965;53.640;10.050;2023-02-28T11:20:01;103135.03;;;5.08;54.23
23574;BME280;11965;53.640;10.050;2023-02-28T11:22:35;103138.16;;;5.02;54.33
23574;BME280;11965;53.640;10.050;2023-02-28T11:25:09;103140.72;;;5.05;53.78
23574;BME280;11965;53.640;10.050;2023-02-28T11:27:46;103142.72;;;5.03;53.17
23574;BME280;11965;53.640;10.050;2023-02-28T11:30:32;103131.09;;;5.12;53.18
23574;BME280;11965;53.640;10.050;2023-02-28T11:32:59;103134.13;;;5.35;52.43
23574;BME280;11965;53.640;10.050;2023-02-28T11:35:30;103126.78;;;5.35;52.88
23574;BME280;11965;53.640;10.050;2023-02-28T11:38:00;103122.16;;;5.36;52.49
23574;BME280;11965;53.640;10.050;2023-02-28T11:40:36;103118.88;;;5.43;52.13
23574;BME280;11965;53.640;10.050;2023-02-28T11:43:19;103120.81;;;5.28;52.16
23574;BME280;11965;53.640;10.050;2023-02-28T11:46:04;103115.94;;;5.19;52.31
23574;BME280;11965;53.640;10.050;2023-02-28T11:48:42;103120.22;;;5.23;52.50
23574;BME280;11965;53.640;10.050;2023-02-28T11:51:21;103115.38;;;5.14;51.33
23574;BME280;11965;53.640;10.050;2023-02-28T11:54:21;103112.13;;;5.07;52.25
23574;BME280;11965;53.640;10.050;2023-02-28T11:56:57;103116.59;;;5.23;50.78
23574;BME280;11965;53.640;10.050;2023-02-28T11:59:41;103113.59;;;5.40;50.31
23574;BME280;11965;53.640;10.050;2023-02-28T12:02:26;103100.66;;;5.55;49.65
23574;BME280;11965;53.640;10.050;2023-02-28T12:05:19;103102.63;;;5.53;48.93
23574;BME280;11965;53.640;10.050;2023-02-28T12:08:01;103094.00;;;5.45;49.82
23574;BME280;11965;53.640;10.050;2023-02-28T12:10:51;103103.53;;;5.26;52.88
23574;BME280;11965;53.640;10.050;2023-02-28T12:13:26;103096.69;;;5.19;52.74
23574;BME280;11965;53.640;10.050;2023-02-28T12:19:09;103081.44;;;5.01;52.06
23574;BME280;11965;53.640;10.050;2023-02-28T12:22:02;103079.88;;;4.97;52.40
23574;BME280;11965;53.640;10.050;2023-02-28T12:25:08;103066.31;;;5.08;52.58
23574;BME280;11965;53.640;10.050;2023-02-28T12:27:46;103066.03;;;5.25;50.64
23574;BME280;11965;53.640;10.050;2023-02-28T12:30:21;103057.13;;;5.35;49.61
23574;BME280;11965;53.640;10.050;2023-02-28T12:32:54;103054.84;;;5.41;49.74
23574;BME280;11965;53.640;10.050;2023-02-28T12:35:26;103060.69;;;5.49;49.13
23574;BME280;11965;53.640;10.050;2023-02-28T12:38:01;103052.00;;;5.43;49.07
23574;BME280;11965;53.640;10.050;2023-02-28T12:40:42;103053.28;;;5.37;49.59
23574;BME280;11965;53.640;10.050;2023-02-28T12:43:16;103045.59;;;5.42;50.34
23574;BME280;11965;53.640;10.050;2023-02-28T12:45:48;103043.66;;;5.57;50.04
23574;BME280;11965;53.640;10.050;2023-02-28T12:48:24;103039.13;;;5.69;49.32
23574;BME280;11965;53.640;10.050;2023-02-28T12:50:53;103029.16;;;5.81;48.34
23574;BME280;11965;53.640;10.050;2023-02-28T12:53:28;103030.25;;;5.78;48.39
23574;BME280;11965;53.640;10.050;2023-02-28T12:56:10;103023.66;;;5.81;49.06
23574;BME280;11965;53.640;10.050;2023-02-28T12:58:45;103029.25;;;5.79;47.41
23574;BME280;11965;53.640;10.050;2023-02-28T13:01:36;103023.66;;;5.93;47.04
23574;BME280;11965;53.640;10.050;2023-02-28T13:07:41;103021.13;;;6.16;45.39